createdAt,value
2023-04-12T00:00:24.745Z,75.91
2023-04-12T00:01:18.058Z,75.79
2023-04-12T00:01:51.463Z,75.74
2023-04-12T00:02:25.095Z,75.72
2023-04-12T00:02:59.817Z,75.71
2023-04-12T00:03:34.663Z,75.68
2023-04-12T00:04:10.779Z,75.70
2023-04-12T00:04:44.661Z,75.72
2023-04-12T00:05:18.390Z,75.71
2023-04-12T00:05:55.120Z,75.73
2023-04-12T00:06:32.803Z,75.78
2023-04-12T00:07:06.515Z,75.77
2023-04-12T00:07:39.925Z,75.80
2023-04-12T00:08:14.542Z,75.71
2023-04-12T00:08:47.897Z,75.79
2023-04-12T00:09:21.294Z,75.83
2023-04-12T00:09:56.785Z,75.78
2023-04-12T00:10:33.479Z,75.71
2023-04-12T00:11:08.131Z,75.65
2023-04-12T00:11:41.810Z,75.61
2023-04-12T00:12:15.271Z,75.52
2023-04-12T00:12:49.669Z,75.48
2023-04-12T00:13:23.429Z,75.33
2023-04-12T00:13:56.948Z,75.25
2023-04-12T00:14:30.466Z,75.25
2023-04-12T00:15:05.688Z,75.10
2023-04-12T00:15:40.687Z,75.12
2023-04-12T00:16:16.072Z,75.06
2023-04-12T00:16:49.734Z,75.00
2023-04-12T00:17:23.123Z,74.93
2023-04-12T00:17:56.568Z,74.90
2023-04-12T00:18:29.937Z,75.02
2023-04-12T00:19:03.961Z,75.03
2023-04-12T00:19:41.499Z,74.94
2023-04-12T00:20:16.714Z,74.90
2023-04-12T00:20:50.022Z,75.20
2023-04-12T00:21:24.019Z,75.11
2023-04-12T00:21:57.876Z,75.22
2023-04-12T00:22:31.273Z,75.24
2023-04-12T00:23:04.788Z,75.43
2023-04-12T00:23:38.275Z,75.67
2023-04-12T00:24:11.826Z,75.67
2023-04-12T00:24:45.103Z,75.67
2023-04-12T00:25:18.676Z,75.84
2023-04-12T00:25:52.130Z,75.83
2023-04-12T00:26:26.113Z,75.92
2023-04-12T00:27:02.234Z,76.00
2023-04-12T00:27:35.880Z,76.14
2023-04-12T00:28:09.343Z,76.23
2023-04-12T00:28:43.213Z,76.34
2023-04-12T00:29:18.656Z,76.53
2023-04-12T00:29:52.142Z,76.47
2023-04-12T00:30:25.952Z,76.50
2023-04-12T00:30:59.443Z,76.50
2023-04-12T00:31:33.815Z,76.47
2023-04-12T00:32:08.748Z,76.52
2023-04-12T00:32:42.142Z,76.59
2023-04-12T00:33:15.546Z,76.74
2023-04-12T00:33:48.906Z,76.74
2023-04-12T00:34:22.293Z,76.79
2023-04-12T00:34:55.998Z,76.73
2023-04-12T00:35:29.611Z,76.90
2023-04-12T00:36:03.349Z,76.77
2023-04-12T00:36:36.960Z,76.85
2023-04-12T00:37:10.387Z,76.87
2023-04-12T00:37:45.947Z,76.88
2023-04-12T00:38:19.367Z,76.96
2023-04-12T00:38:52.871Z,77.09
2023-04-12T00:39:26.804Z,77.02
2023-04-12T00:40:00.411Z,77.07
2023-04-12T00:40:33.769Z,77.05
2023-04-12T00:41:08.849Z,77.11
2023-04-12T00:41:42.286Z,77.07
2023-04-12T00:42:15.738Z,77.03
2023-04-12T00:42:49.042Z,77.03
2023-04-12T00:43:23.368Z,77.03
2023-04-12T00:43:57.229Z,76.98
2023-04-12T00:44:31.634Z,76.98
2023-04-12T00:45:06.930Z,77.03
2023-04-12T00:45:40.694Z,77.03
2023-04-12T00:46:13.947Z,77.04
2023-04-12T00:46:47.607Z,77.08
2023-04-12T00:47:21.208Z,77.04
2023-04-12T00:47:57.932Z,77.10
2023-04-12T00:48:31.917Z,77.22
2023-04-12T00:49:05.845Z,77.26
2023-04-12T00:49:39.255Z,77.25
2023-04-12T00:50:12.780Z,77.36
2023-04-12T00:50:46.838Z,77.36
2023-04-12T00:51:22.812Z,77.37
2023-04-12T00:52:00.196Z,77.42
2023-04-12T00:52:37.796Z,77.45
2023-04-12T00:53:14.803Z,77.32
2023-04-12T00:53:48.680Z,77.36
2023-04-12T00:54:22.420Z,77.34
2023-04-12T00:54:55.741Z,77.32
2023-04-12T00:55:29.181Z,77.33
2023-04-12T00:56:04.584Z,77.33
2023-04-12T00:56:40.573Z,77.18
2023-04-12T00:57:14.060Z,77.11
2023-04-12T00:57:47.632Z,77.12
2023-04-12T00:58:24.437Z,77.12
2023-04-12T00:58:58.412Z,77.07
2023-04-12T00:59:32.193Z,77.08
2023-04-12T01:00:13.083Z,77.00
2023-04-12T01:00:50.531Z,76.92
2023-04-12T01:01:24.409Z,76.97
2023-04-12T01:01:59.570Z,76.90
2023-04-12T01:02:35.118Z,76.78
2023-04-12T01:03:08.929Z,76.79
2023-04-12T01:03:43.437Z,76.67
2023-04-12T01:04:17.199Z,76.65
2023-04-12T01:04:51.603Z,76.54
2023-04-12T01:05:25.695Z,76.49
2023-04-12T01:06:14.661Z,76.48
2023-04-12T01:06:48.035Z,76.54
2023-04-12T01:07:39.124Z,76.54
2023-04-12T01:08:19.353Z,76.54
2023-04-12T01:09:05.139Z,76.44
2023-04-12T01:09:44.033Z,76.55
2023-04-12T01:10:43.952Z,76.49
2023-04-12T01:11:32.069Z,76.32
2023-04-12T01:12:21.455Z,76.35
2023-04-12T01:13:13.622Z,75.75
2023-04-12T01:13:56.418Z,75.86
2023-04-12T01:14:42.276Z,76.17
2023-04-12T01:15:17.276Z,76.29
2023-04-12T01:15:57.571Z,76.39
2023-04-12T01:16:41.082Z,76.30
2023-04-12T01:17:21.382Z,76.33
2023-04-12T01:18:03.125Z,76.46
2023-04-12T01:18:43.106Z,76.39
2023-04-12T01:19:23.183Z,76.65
2023-04-12T01:20:13.740Z,76.70
2023-04-12T01:21:09.032Z,76.63
2023-04-12T01:22:02.847Z,76.62
2023-04-12T01:23:18.051Z,76.61
2023-04-12T01:24:14.283Z,76.57
2023-04-12T01:25:09.929Z,76.55
2023-04-12T01:25:49.051Z,76.57
2023-04-12T01:26:41.040Z,76.53
2023-04-12T01:27:48.200Z,76.45
2023-04-12T01:28:27.879Z,76.50
2023-04-12T01:29:10.427Z,76.57
2023-04-12T01:29:50.085Z,76.55
2023-04-12T01:30:28.362Z,76.53
2023-04-12T01:31:03.898Z,76.54
2023-04-12T01:31:41.598Z,76.56
2023-04-12T01:32:15.201Z,76.54
2023-04-12T01:32:53.670Z,76.58
2023-04-12T01:33:31.690Z,76.56
2023-04-12T01:34:06.413Z,76.55
2023-04-12T01:34:41.939Z,76.50
2023-04-12T01:35:17.023Z,76.51
2023-04-12T01:35:51.891Z,76.52
2023-04-12T01:36:28.457Z,76.49
2023-04-12T01:37:03.755Z,76.47
2023-04-12T01:37:37.876Z,76.44
2023-04-12T01:38:11.609Z,76.46
2023-04-12T01:38:45.895Z,76.38
2023-04-12T01:39:19.351Z,76.32
2023-04-12T01:39:52.823Z,76.28
2023-04-12T01:40:31.320Z,76.29
2023-04-12T01:41:05.929Z,76.19
2023-04-12T01:41:45.652Z,76.16
2023-04-12T01:42:20.795Z,76.22
2023-04-12T01:43:16.506Z,76.18
2023-04-12T01:43:49.967Z,76.22
2023-04-12T01:44:23.492Z,76.23
2023-04-12T01:44:59.147Z,76.13
2023-04-12T01:45:32.620Z,76.10
2023-04-12T01:46:06.398Z,76.11
2023-04-12T01:46:40.106Z,76.11
2023-04-12T01:47:13.829Z,76.09
2023-04-12T01:47:47.563Z,76.07
2023-04-12T01:48:21.181Z,76.09
2023-04-12T01:48:55.133Z,76.12
2023-04-12T01:50:43.708Z,76.09
2023-04-12T01:51:38.646Z,76.11
2023-04-12T01:52:17.410Z,76.12
2023-04-12T01:52:59.349Z,76.04
2023-04-12T01:54:03.253Z,76.07
2023-04-12T01:54:39.065Z,76.23
2023-04-12T01:55:14.786Z,76.20
2023-04-12T01:55:49.739Z,76.19
2023-04-12T01:56:26.416Z,76.24
2023-04-12T01:57:03.209Z,76.27
2023-04-12T01:57:39.143Z,76.29
2023-04-12T01:58:13.539Z,76.25
2023-04-12T01:58:50.969Z,76.13
2023-04-12T01:59:28.665Z,75.96
2023-04-12T02:00:06.813Z,75.92
2023-04-12T02:00:47.759Z,75.85
2023-04-12T02:01:22.526Z,76.00
2023-04-12T02:01:56.566Z,76.10
2023-04-12T02:02:31.131Z,76.14
2023-04-12T02:03:07.063Z,76.17
2023-04-12T02:03:42.886Z,76.06
2023-04-12T02:04:18.548Z,76.03
2023-04-12T02:04:53.112Z,76.01
2023-04-12T02:05:27.715Z,76.01
2023-04-12T02:06:02.865Z,75.92
2023-04-12T02:06:37.984Z,75.92
2023-04-12T02:07:12.637Z,75.95
2023-04-12T02:07:46.457Z,75.84
2023-04-12T02:08:19.848Z,75.86
2023-04-12T02:09:02.365Z,75.89
2023-04-12T02:09:39.445Z,75.80
2023-04-12T02:10:15.820Z,75.92
2023-04-12T02:10:49.199Z,75.86
2023-04-12T02:11:22.962Z,75.89
2023-04-12T02:11:56.828Z,75.86
2023-04-12T02:12:30.259Z,75.94
2023-04-12T02:13:04.462Z,75.90
2023-04-12T02:13:38.065Z,75.79
2023-04-12T02:14:11.577Z,75.69
2023-04-12T02:14:45.062Z,75.59
2023-04-12T02:15:18.456Z,75.66
2023-04-12T02:15:55.029Z,75.73
2023-04-12T02:16:29.729Z,75.71
2023-04-12T02:17:04.739Z,75.71
2023-04-12T02:17:38.545Z,75.76
2023-04-12T02:18:14.059Z,75.73
2023-04-12T02:18:47.870Z,75.71
2023-04-12T02:19:21.352Z,75.70
2023-04-12T02:19:55.428Z,75.69
2023-04-12T02:20:29.187Z,75.70
2023-04-12T02:21:02.625Z,75.65
2023-04-12T02:21:43.055Z,75.63
2023-04-12T02:22:17.400Z,75.54
2023-04-12T02:22:52.158Z,75.52
2023-04-12T02:23:27.575Z,75.57
2023-04-12T02:24:00.894Z,75.59
2023-04-12T02:24:34.518Z,75.52
2023-04-12T02:25:08.191Z,75.57
2023-04-12T02:25:41.646Z,75.44
2023-04-12T02:26:15.235Z,75.53
2023-04-12T02:26:51.457Z,75.48
2023-04-12T02:27:25.552Z,75.45
2023-04-12T02:27:59.064Z,75.41
2023-04-12T02:28:34.125Z,75.46
2023-04-12T02:29:09.499Z,75.43
2023-04-12T02:29:42.856Z,75.31
2023-04-12T02:30:16.394Z,75.34
2023-04-12T02:30:54.116Z,75.35
2023-04-12T02:31:28.186Z,75.30
2023-04-12T02:32:03.002Z,75.34
2023-04-12T02:32:44.308Z,75.37
2023-04-12T02:33:21.930Z,75.30
2023-04-12T02:33:55.870Z,75.35
2023-04-12T02:34:36.881Z,75.33
2023-04-12T02:35:25.078Z,75.34
2023-04-12T02:36:05.777Z,75.34
2023-04-12T02:36:39.396Z,75.37
2023-04-12T02:37:14.943Z,75.36
2023-04-12T02:37:48.767Z,75.42
2023-04-12T02:38:22.049Z,75.43
2023-04-12T02:38:56.806Z,75.33
2023-04-12T02:39:32.416Z,75.43
2023-04-12T02:40:07.282Z,75.39
2023-04-12T02:40:41.156Z,75.42
2023-04-12T02:41:20.108Z,75.39
2023-04-12T02:41:53.807Z,75.39
2023-04-12T02:42:27.195Z,75.37
2023-04-12T02:43:00.701Z,75.48
2023-04-12T02:43:34.375Z,75.34
2023-04-12T02:44:10.698Z,75.38
2023-04-12T02:44:48.061Z,75.33
2023-04-12T02:45:21.821Z,75.35
2023-04-12T02:45:55.822Z,75.39
2023-04-12T02:46:29.523Z,75.31
2023-04-12T02:47:04.667Z,75.28
2023-04-12T02:47:38.722Z,75.27
2023-04-12T02:48:13.208Z,75.20
2023-04-12T02:48:46.903Z,75.17
2023-04-12T02:49:20.594Z,75.14
2023-04-12T02:49:54.974Z,75.22
2023-04-12T02:50:29.646Z,75.23
2023-04-12T02:51:13.383Z,75.30
2023-04-12T02:51:46.853Z,75.27
2023-04-12T02:52:21.221Z,75.27
2023-04-12T02:53:06.299Z,75.31
2023-04-12T02:53:39.839Z,75.36
2023-04-12T02:54:18.525Z,75.36
2023-04-12T02:55:00.370Z,75.35
2023-04-12T02:55:34.168Z,75.38
2023-04-12T02:56:09.713Z,75.44
2023-04-12T02:56:44.040Z,75.50
2023-04-12T02:57:33.260Z,75.46
2023-04-12T02:58:07.440Z,75.48
2023-04-12T02:58:44.827Z,75.30
2023-04-12T02:59:19.391Z,75.37
2023-04-12T03:00:14.091Z,75.32
2023-04-12T03:00:53.669Z,75.35
2023-04-12T03:01:32.289Z,75.26
2023-04-12T03:02:23.234Z,75.29
2023-04-12T03:03:00.365Z,75.30
2023-04-12T03:03:36.129Z,75.29
2023-04-12T03:04:19.558Z,75.34
2023-04-12T03:04:58.781Z,75.16
2023-04-12T03:05:40.294Z,75.29
2023-04-12T03:06:13.721Z,75.25
2023-04-12T03:06:54.010Z,75.30
2023-04-12T03:07:38.985Z,75.17
2023-04-12T03:08:14.448Z,75.20
2023-04-12T03:08:53.331Z,75.13
2023-04-12T03:09:27.269Z,75.11
2023-04-12T03:10:02.287Z,75.15
2023-04-12T03:10:36.219Z,75.10
2023-04-12T03:11:09.897Z,75.20
2023-04-12T03:11:43.317Z,75.16
2023-04-12T03:12:17.353Z,75.22
2023-04-12T03:12:59.047Z,75.21
2023-04-12T03:13:40.187Z,75.29
2023-04-12T03:14:13.591Z,75.25
2023-04-12T03:14:47.857Z,75.37
2023-04-12T03:15:23.798Z,75.42
2023-04-12T03:16:00.187Z,75.37
2023-04-12T03:16:40.991Z,75.37
2023-04-12T03:17:17.681Z,75.46
2023-04-12T03:17:51.675Z,75.45
2023-04-12T03:18:29.791Z,75.44
2023-04-12T03:19:03.630Z,75.38
2023-04-12T03:19:37.490Z,75.36
2023-04-12T03:20:11.149Z,75.41
2023-04-12T03:20:48.597Z,75.37
2023-04-12T03:21:23.706Z,75.41
2023-04-12T03:21:57.831Z,75.37
2023-04-12T03:22:31.433Z,75.33
2023-04-12T03:23:05.604Z,75.30
2023-04-12T03:23:40.585Z,75.28
2023-04-12T03:24:21.781Z,75.22
2023-04-12T03:24:55.793Z,75.24
2023-04-12T03:25:29.298Z,75.28
2023-04-12T03:26:07.353Z,75.26
2023-04-12T03:26:42.424Z,75.12
2023-04-12T03:27:20.284Z,75.15
2023-04-12T03:27:54.354Z,75.15
2023-04-12T03:28:30.061Z,75.07
2023-04-12T03:29:10.066Z,75.03
2023-04-12T03:29:45.068Z,74.99
2023-04-12T03:30:18.687Z,74.98
2023-04-12T03:30:52.321Z,74.96
2023-04-12T03:31:28.303Z,74.96
2023-04-12T03:32:02.461Z,74.90
2023-04-12T03:32:37.489Z,74.92
2023-04-12T03:33:11.546Z,74.87
2023-04-12T03:33:45.272Z,74.86
2023-04-12T03:34:39.084Z,74.78
2023-04-12T03:35:18.138Z,74.79
2023-04-12T03:35:51.743Z,74.78
2023-04-12T03:36:25.432Z,74.77
2023-04-12T03:37:02.728Z,74.80
2023-04-12T03:37:44.782Z,74.77
2023-04-12T03:38:18.532Z,74.81
2023-04-12T03:38:52.162Z,74.84
2023-04-12T03:39:26.016Z,74.95
2023-04-12T03:40:00.348Z,74.86
2023-04-12T03:40:34.390Z,74.94
2023-04-12T03:41:08.091Z,75.00
2023-04-12T03:41:43.586Z,74.99
2023-04-12T03:42:29.957Z,75.08
2023-04-12T03:43:07.066Z,75.01
2023-04-12T03:43:42.673Z,75.07
2023-04-12T03:44:26.347Z,75.04
2023-04-12T03:45:01.592Z,75.02
2023-04-12T03:45:35.253Z,75.06
2023-04-12T03:46:09.125Z,75.02
2023-04-12T03:46:42.897Z,75.03
2023-04-12T03:47:17.277Z,75.00
2023-04-12T03:47:51.003Z,75.01
2023-04-12T03:48:25.555Z,75.00
2023-04-12T03:48:59.147Z,74.96
2023-04-12T03:49:32.974Z,75.01
2023-04-12T03:50:11.937Z,74.90
2023-04-12T03:50:48.699Z,75.01
2023-04-12T03:51:27.191Z,74.99
2023-04-12T03:52:07.479Z,74.98
2023-04-12T03:52:40.997Z,75.04
2023-04-12T03:53:14.626Z,75.09
2023-04-12T03:53:49.947Z,75.04
2023-04-12T03:54:24.543Z,75.09
2023-04-12T03:55:07.889Z,75.11
2023-04-12T03:55:42.580Z,75.08
2023-04-12T03:56:16.168Z,75.13
2023-04-12T03:56:51.945Z,75.20
2023-04-12T03:57:30.501Z,75.18
2023-04-12T03:58:04.842Z,75.28
2023-04-12T03:58:41.307Z,75.32
2023-04-12T03:59:16.050Z,75.30
2023-04-12T03:59:50.488Z,75.27
2023-04-12T04:00:26.152Z,75.29
2023-04-12T04:01:14.180Z,75.29
2023-04-12T04:01:49.135Z,75.32
2023-04-12T04:02:23.196Z,75.34
2023-04-12T04:03:03.728Z,75.35
2023-04-12T04:03:41.489Z,75.28
2023-04-12T04:04:24.925Z,75.25
2023-04-12T04:05:02.664Z,75.24
2023-04-12T04:05:36.487Z,75.23
2023-04-12T04:06:11.000Z,75.28
2023-04-12T04:06:45.094Z,75.18
2023-04-12T04:07:18.623Z,75.18
2023-04-12T04:07:52.864Z,75.10
2023-04-12T04:08:26.376Z,75.12
2023-04-12T04:09:00.353Z,75.13
2023-04-12T04:09:34.622Z,75.08
2023-04-12T04:10:08.310Z,75.06
2023-04-12T04:10:43.094Z,74.99
2023-04-12T04:11:17.089Z,74.91
2023-04-12T04:11:53.357Z,74.90
2023-04-12T04:12:28.251Z,74.93
2023-04-12T04:13:01.958Z,74.93
2023-04-12T04:13:38.334Z,74.86
2023-04-12T04:14:13.697Z,74.90
2023-04-12T04:14:47.239Z,74.84
2023-04-12T04:15:28.636Z,74.88
2023-04-12T04:16:06.974Z,74.85
2023-04-12T04:16:40.525Z,74.89
2023-04-12T04:17:14.428Z,74.85
2023-04-12T04:17:49.514Z,74.97
2023-04-12T04:18:24.717Z,74.92
2023-04-12T04:18:58.233Z,74.88
2023-04-12T04:19:32.223Z,74.89
2023-04-12T04:20:08.410Z,74.91
2023-04-12T04:20:42.885Z,74.88
2023-04-12T04:21:16.664Z,74.86
2023-04-12T04:21:50.321Z,74.83
2023-04-12T04:22:24.513Z,74.85
2023-04-12T04:22:58.666Z,74.80
2023-04-12T04:23:39.847Z,74.84
2023-04-12T04:24:14.542Z,74.76
2023-04-12T04:24:51.968Z,74.78
2023-04-12T04:25:30.286Z,74.83
2023-04-12T04:26:10.810Z,74.69
2023-04-12T04:26:50.577Z,74.72
2023-04-12T04:27:34.596Z,74.76
2023-04-12T04:28:09.977Z,74.83
2023-04-12T04:28:47.970Z,74.83
2023-04-12T04:29:25.863Z,74.73
2023-04-12T04:29:59.740Z,74.77
2023-04-12T04:30:39.181Z,74.88
2023-04-12T04:31:17.854Z,74.75
2023-04-12T04:31:54.640Z,74.77
2023-04-12T04:32:29.376Z,74.84
2023-04-12T04:33:03.638Z,74.86
2023-04-12T04:33:37.967Z,74.85
2023-04-12T04:34:12.826Z,74.92
2023-04-12T04:34:49.672Z,74.81
2023-04-12T04:35:24.530Z,74.86
2023-04-12T04:36:09.525Z,74.85
2023-04-12T04:36:47.032Z,74.79
2023-04-12T04:37:28.384Z,74.87
2023-04-12T04:38:01.853Z,74.86
2023-04-12T04:38:36.252Z,74.82
2023-04-12T04:39:14.557Z,74.89
2023-04-12T04:39:49.492Z,74.85
2023-04-12T04:40:24.970Z,74.81
2023-04-12T04:41:02.613Z,74.83
2023-04-12T04:41:47.012Z,74.85
2023-04-12T04:42:30.011Z,74.87
2023-04-12T04:43:08.372Z,74.90
2023-04-12T04:43:43.156Z,74.94
2023-04-12T04:44:16.603Z,74.93
2023-04-12T04:45:03.928Z,74.96
2023-04-12T04:45:43.155Z,74.96
2023-04-12T04:46:17.480Z,74.96
2023-04-12T04:46:51.970Z,75.04
2023-04-12T04:47:25.387Z,75.04
2023-04-12T04:47:59.090Z,75.04
2023-04-12T04:48:32.474Z,75.08
2023-04-12T04:49:07.050Z,75.14
2023-04-12T04:49:41.546Z,75.13
2023-04-12T04:50:28.813Z,75.23
2023-04-12T04:51:02.993Z,75.30
2023-04-12T04:51:36.915Z,75.28
2023-04-12T04:52:10.630Z,75.25
2023-04-12T04:52:44.846Z,75.35
2023-04-12T04:53:22.075Z,75.44
2023-04-12T04:53:55.809Z,75.48
2023-04-12T04:54:29.408Z,75.53
2023-04-12T04:55:05.503Z,75.59
2023-04-12T04:55:42.690Z,75.56
2023-04-12T04:56:16.737Z,75.54
2023-04-12T04:56:50.262Z,75.61
2023-04-12T04:57:24.915Z,75.56
2023-04-12T04:57:58.378Z,75.68
2023-04-12T04:58:33.304Z,75.59
2023-04-12T04:59:07.756Z,75.56
2023-04-12T04:59:41.555Z,75.57
2023-04-12T05:00:25.868Z,75.63
2023-04-12T05:01:02.628Z,75.58
2023-04-12T05:01:42.330Z,75.57
2023-04-12T05:02:22.228Z,75.52
2023-04-12T05:02:57.585Z,75.56
2023-04-12T05:03:35.107Z,75.61
2023-04-12T05:04:09.602Z,75.69
2023-04-12T05:04:44.332Z,75.61
2023-04-12T05:05:23.635Z,75.65
2023-04-12T05:06:02.214Z,75.67
2023-04-12T05:06:36.255Z,75.70
2023-04-12T05:07:09.685Z,75.76
2023-04-12T05:07:44.213Z,75.74
2023-04-12T05:08:17.677Z,75.73
2023-04-12T05:08:52.727Z,75.81
2023-04-12T05:09:26.296Z,75.73
2023-04-12T05:10:03.960Z,75.77
2023-04-12T05:10:37.872Z,75.74
2023-04-12T05:11:11.462Z,75.72
2023-04-12T05:11:44.874Z,75.78
2023-04-12T05:12:18.356Z,75.69
2023-04-12T05:12:54.579Z,75.66
2023-04-12T05:13:30.058Z,75.64
2023-04-12T05:14:03.706Z,75.60
2023-04-12T05:14:47.403Z,75.64
2023-04-12T05:15:24.909Z,75.57
2023-04-12T05:15:58.283Z,75.56
2023-04-12T05:16:32.198Z,75.57
2023-04-12T05:17:05.776Z,75.53
2023-04-12T05:17:39.490Z,75.49
2023-04-12T05:18:14.648Z,75.52
2023-04-12T05:18:48.137Z,75.54
2023-04-12T05:19:22.154Z,75.51
2023-04-12T05:19:56.311Z,75.58
2023-04-12T05:20:29.882Z,75.51
2023-04-12T05:21:06.729Z,75.55
2023-04-12T05:21:40.203Z,75.55
2023-04-12T05:22:14.944Z,75.55
2023-04-12T05:22:51.547Z,75.54
2023-04-12T05:24:05.545Z,75.56
2023-04-12T05:24:44.123Z,75.51
2023-04-12T05:25:17.548Z,75.64
2023-04-12T05:25:58.047Z,75.59
2023-04-12T05:26:31.622Z,75.62
2023-04-12T05:27:06.033Z,75.62
2023-04-12T05:27:39.576Z,75.57
2023-04-12T05:28:15.163Z,75.65
2023-04-12T05:28:48.631Z,75.64
2023-04-12T05:29:22.568Z,75.67
2023-04-12T05:29:57.776Z,75.66
2023-04-12T05:30:31.752Z,75.62
2023-04-12T05:31:06.412Z,75.64
2023-04-12T05:31:42.433Z,75.68
2023-04-12T05:32:21.606Z,75.66
2023-04-12T05:32:55.219Z,75.66
2023-04-12T05:33:28.652Z,75.75
2023-04-12T05:34:02.222Z,75.79
2023-04-12T05:34:40.711Z,75.74
2023-04-12T05:35:14.974Z,75.87
2023-04-12T05:35:49.053Z,75.84
2023-04-12T05:36:22.499Z,75.83
2023-04-12T05:36:59.844Z,75.85
2023-04-12T05:37:35.348Z,75.88
2023-04-12T05:38:08.948Z,76.02
2023-04-12T05:38:43.530Z,76.03
2023-04-12T05:39:20.610Z,76.08
2023-04-12T05:39:54.598Z,76.04
2023-04-12T05:40:28.089Z,76.08
2023-04-12T05:41:04.942Z,76.18
2023-04-12T05:41:39.339Z,76.21
2023-04-12T05:42:12.905Z,76.25
2023-04-12T05:42:46.563Z,76.27
2023-04-12T05:43:20.531Z,76.37
2023-04-12T05:43:54.076Z,76.26
2023-04-12T05:44:27.825Z,76.40
2023-04-12T05:45:01.708Z,76.47
2023-04-12T05:45:35.767Z,76.54
2023-04-12T05:46:09.237Z,76.60
2023-04-12T05:46:43.027Z,76.88
2023-04-12T05:47:16.847Z,76.95
2023-04-12T05:47:50.611Z,77.10
2023-04-12T05:48:24.220Z,77.19
2023-04-12T05:48:58.388Z,77.32
2023-04-12T05:49:32.434Z,77.36
2023-04-12T05:50:07.767Z,77.49
2023-04-12T05:50:41.321Z,77.55
2023-04-12T05:51:14.811Z,77.71
2023-04-12T05:51:48.372Z,77.88
2023-04-12T05:52:27.093Z,78.00
2023-04-12T05:53:02.059Z,78.03
2023-04-12T05:53:40.241Z,78.17
2023-04-12T05:54:13.961Z,78.28
2023-04-12T05:54:47.439Z,78.48
2023-04-12T05:55:22.714Z,78.70
2023-04-12T05:55:56.217Z,78.82
2023-04-12T05:56:29.935Z,78.83
2023-04-12T05:57:03.697Z,78.93
2023-04-12T05:57:37.733Z,78.91
2023-04-12T05:58:11.927Z,79.07
2023-04-12T05:58:45.447Z,79.31
2023-04-12T05:59:22.545Z,79.36
2023-04-12T05:59:55.996Z,79.37
2023-04-12T06:00:29.538Z,79.47
2023-04-12T06:01:03.185Z,79.76
2023-04-12T06:01:36.952Z,79.71
2023-04-12T06:02:11.431Z,79.80
2023-04-12T06:02:46.530Z,79.83
2023-04-12T06:03:24.186Z,79.93
2023-04-12T06:03:59.811Z,79.99
2023-04-12T06:04:46.845Z,80.09
2023-04-12T06:05:24.071Z,80.00
2023-04-12T06:05:57.858Z,80.11
2023-04-12T06:06:31.703Z,80.12
2023-04-12T06:07:05.994Z,80.20
2023-04-12T06:07:40.255Z,80.22
2023-04-12T06:08:15.053Z,80.31
2023-04-12T06:08:48.576Z,80.29
2023-04-12T06:09:22.537Z,80.34
2023-04-12T06:09:56.665Z,80.37
2023-04-12T06:10:30.189Z,80.41
2023-04-12T06:11:08.318Z,80.38
2023-04-12T06:11:42.237Z,80.56
2023-04-12T06:12:15.798Z,80.48
2023-04-12T06:12:49.073Z,80.49
2023-04-12T06:13:22.623Z,80.46
2023-04-12T06:13:57.311Z,80.46
2023-04-12T06:14:31.078Z,80.45
2023-04-12T06:15:05.239Z,80.54
2023-04-12T06:15:39.249Z,80.58
2023-04-12T06:16:13.820Z,80.47
2023-04-12T06:16:47.232Z,80.54
2023-04-12T06:17:20.595Z,80.48
2023-04-12T06:17:54.054Z,80.58
2023-04-12T06:18:27.617Z,80.65
2023-04-12T06:19:01.154Z,80.61
2023-04-12T06:19:34.655Z,80.68
2023-04-12T06:20:09.918Z,80.74
2023-04-12T06:20:44.691Z,80.61
2023-04-12T06:21:19.380Z,80.58
2023-04-12T06:21:53.211Z,80.64
2023-04-12T06:22:26.852Z,80.67
2023-04-12T06:23:00.584Z,80.67
2023-04-12T06:23:34.005Z,80.65
2023-04-12T06:24:10.095Z,80.59
2023-04-12T06:24:43.576Z,80.54
2023-04-12T06:25:18.028Z,80.47
2023-04-12T06:25:53.671Z,80.47
2023-04-12T06:26:32.173Z,80.33
2023-04-12T06:27:12.929Z,80.20
2023-04-12T06:27:46.322Z,80.18
2023-04-12T06:28:21.445Z,80.07
2023-04-12T06:28:57.094Z,79.89
2023-04-12T06:29:30.909Z,79.72
2023-04-12T06:30:04.558Z,79.61
2023-04-12T06:30:41.128Z,79.44
2023-04-12T06:31:16.881Z,79.31
2023-04-12T06:31:50.638Z,79.27
2023-04-12T06:32:24.205Z,79.14
2023-04-12T06:32:58.184Z,79.10
2023-04-12T06:33:31.583Z,79.12
2023-04-12T06:34:05.900Z,78.97
2023-04-12T06:34:39.479Z,79.00
2023-04-12T06:35:18.586Z,78.82
2023-04-12T06:35:52.089Z,78.67
2023-04-12T06:36:25.691Z,78.55
2023-04-12T06:37:00.167Z,78.54
2023-04-12T06:37:33.723Z,78.05
2023-04-12T06:38:07.165Z,77.61
2023-04-12T06:38:40.525Z,77.43
2023-04-12T06:39:16.454Z,77.20
2023-04-12T06:39:49.855Z,76.96
2023-04-12T06:40:23.504Z,76.92
2023-04-12T06:40:57.038Z,77.12
2023-04-12T06:41:31.102Z,76.79
2023-04-12T06:42:07.754Z,75.57
2023-04-12T06:42:44.962Z,75.11
2023-04-12T06:43:22.952Z,74.56
2023-04-12T06:43:56.567Z,74.72
2023-04-12T06:44:30.014Z,74.69
2023-04-12T06:45:03.658Z,74.32
2023-04-12T06:45:37.228Z,73.90
2023-04-12T06:46:10.991Z,73.65
2023-04-12T06:46:44.410Z,73.68
2023-04-12T06:47:17.824Z,73.29
2023-04-12T06:47:51.582Z,72.71
2023-04-12T06:48:25.346Z,72.21
2023-04-12T06:48:59.143Z,71.82
2023-04-12T06:49:32.752Z,71.25
2023-04-12T06:50:09.448Z,71.55
2023-04-12T06:50:42.991Z,71.93
2023-04-12T06:51:18.917Z,71.89
2023-04-12T06:51:52.806Z,71.39
2023-04-12T06:52:27.572Z,71.26
2023-04-12T06:53:00.958Z,70.94
2023-04-12T06:53:35.346Z,70.89
2023-04-12T06:54:08.691Z,70.96
2023-04-12T06:54:42.612Z,71.13
2023-04-12T06:55:16.458Z,70.76
2023-04-12T06:55:49.884Z,70.54
2023-04-12T06:56:23.662Z,70.32
2023-04-12T06:56:57.784Z,70.60
2023-04-12T06:57:31.194Z,70.66
2023-04-12T06:58:04.756Z,70.71
2023-04-12T06:58:38.384Z,70.69
2023-04-12T06:59:12.096Z,70.71
2023-04-12T06:59:45.714Z,70.93
2023-04-12T07:00:19.275Z,70.85
2023-04-12T07:00:52.861Z,70.25
2023-04-12T07:01:26.599Z,70.05
2023-04-12T07:02:00.732Z,70.13
2023-04-12T07:02:34.303Z,68.94
2023-04-12T07:03:09.641Z,68.67
2023-04-12T07:03:43.180Z,68.45
2023-04-12T07:04:17.235Z,68.13
2023-04-12T07:04:54.710Z,67.69
2023-04-12T07:05:28.197Z,67.81
2023-04-12T07:06:17.278Z,67.49
2023-04-12T07:06:55.383Z,66.56
2023-04-12T07:07:28.867Z,66.73
2023-04-12T07:08:02.223Z,66.91
2023-04-12T07:08:37.227Z,66.53
2023-04-12T07:09:10.810Z,66.58
2023-04-12T07:09:44.030Z,66.03
2023-04-12T07:10:17.573Z,65.53
2023-04-12T07:10:54.600Z,65.49
2023-04-12T07:11:28.862Z,65.16
2023-04-12T07:12:03.204Z,65.38
2023-04-12T07:12:36.812Z,64.93
2023-04-12T07:13:10.112Z,65.11
2023-04-12T07:13:43.533Z,63.84
2023-04-12T07:14:17.079Z,63.24
2023-04-12T07:14:50.927Z,63.04
2023-04-12T07:15:24.579Z,62.69
2023-04-12T07:15:58.679Z,62.80
2023-04-12T07:16:32.952Z,62.31
2023-04-12T07:17:07.091Z,61.86
2023-04-12T07:17:40.714Z,61.67
2023-04-12T07:18:14.165Z,61.91
2023-04-12T07:18:47.865Z,61.40
2023-04-12T07:19:24.033Z,61.39
2023-04-12T07:19:57.785Z,61.88
2023-04-12T07:20:31.263Z,61.63
2023-04-12T07:21:05.012Z,61.43
2023-04-12T07:21:38.571Z,61.55
2023-04-12T07:22:13.677Z,61.67
2023-04-12T07:22:47.569Z,61.15
2023-04-12T07:23:21.036Z,61.18
2023-04-12T07:23:56.034Z,61.01
2023-04-12T07:24:29.618Z,61.00
2023-04-12T07:25:03.109Z,61.62
2023-04-12T07:25:39.290Z,61.81
2023-04-12T07:26:12.834Z,61.21
2023-04-12T07:26:46.555Z,61.04
2023-04-12T07:27:20.171Z,61.04
2023-04-12T07:27:54.140Z,61.28
2023-04-12T07:28:28.366Z,61.47
2023-04-12T07:29:01.786Z,61.98
2023-04-12T07:29:35.299Z,62.22
2023-04-12T07:30:09.324Z,61.86
2023-04-12T07:30:42.880Z,61.57
2023-04-12T07:31:18.313Z,61.87
2023-04-12T07:31:51.842Z,61.63
2023-04-12T07:32:25.722Z,61.81
2023-04-12T07:33:12.280Z,61.76
2023-04-12T07:33:52.552Z,61.49
2023-04-12T07:34:26.899Z,61.45
2023-04-12T07:35:00.717Z,61.23
2023-04-12T07:35:34.701Z,61.17
2023-04-12T07:36:08.475Z,60.96
2023-04-12T07:36:44.126Z,60.92
2023-04-12T07:37:18.176Z,60.74
2023-04-12T07:37:51.477Z,60.87
2023-04-12T07:38:24.818Z,60.68
2023-04-12T07:38:58.378Z,60.74
2023-04-12T07:39:32.245Z,60.22
2023-04-12T07:40:06.956Z,61.00
2023-04-12T07:40:40.356Z,61.21
2023-04-12T07:41:13.830Z,61.10
2023-04-12T07:41:48.544Z,61.26
2023-04-12T07:42:21.939Z,61.68
2023-04-12T07:42:55.604Z,61.39
2023-04-12T07:43:28.993Z,61.65
2023-04-12T07:44:02.388Z,62.13